Time;durP1;ratioP1;P1;durP2;ratioP2;P2;SDS_P1;SDS_P2;PMS_P1;PMS_P2;Temp;Humidity;BMP_temperature;BMP_pressure;BME280_temperature;BME280_humidity;BME280_pressure;Samples;Min_cycle;Max_cycle;Signal;HPM_P1;HPM_P2
2023/04/20 03:01:03;;;;;;;3.53;0.82;;;8.00;93.90;;;;;;5961461;23;88357;31
2023/04/20 03:03:29;;;;;;;3.88;1.20;;;8.10;93.80;;;;;;4857155;28;89016;-68
2023/04/20 03:05:55;;;;;;;3.22;1.20;;;8.10;93.50;;;;;;4856991;28;87750;-69
2023/04/20 03:08:21;;;;;;;4.07;1.30;;;8.00;93.70;;;;;;4855714;28;88027;-69
2023/04/20 03:10:47;;;;;;;3.40;1.20;;;8.00;93.70;;;;;;4852300;28;88806;-69
2023/04/20 03:13:13;;;;;;;2.53;0.90;;;8.00;94.00;;;;;;4862522;28;89060;-69
2023/04/20 03:15:39;;;;;;;2.85;0.95;;;7.90;93.60;;;;;;4857910;28;88599;-71
2023/04/20 03:18:05;;;;;;;4.47;1.13;;;7.90;94.40;;;;;;4857871;28;89515;-70
2023/04/20 03:20:31;;;;;;;3.15;1.25;;;7.90;94.20;;;;;;4857544;28;87993;-70
2023/04/20 03:22:57;;;;;;;3.13;1.30;;;7.90;94.40;;;;;;4863211;28;87314;-69
2023/04/20 03:25:22;;;;;;;4.00;1.55;;;8.00;94.40;;;;;;4860107;28;87606;-70
2023/04/20 03:27:48;;;;;;;5.15;1.40;;;8.00;94.20;;;;;;4859506;28;88474;-70
2023/04/20 03:30:14;;;;;;;3.30;1.35;;;8.10;94.40;;;;;;4857664;28;87144;-69
2023/04/20 03:32:41;;;;;;;3.60;1.45;;;8.10;94.40;;;;;;4851630;28;88483;-70
2023/04/20 03:35:07;;;;;;;2.88;1.20;;;8.10;94.30;;;;;;4858655;28;87951;-69
2023/04/20 03:37:35;;;;;;;4.45;1.73;;;8.10;93.90;;;;;;4858780;28;87490;-71
2023/04/20 03:40:01;;;;;;;3.78;1.55;;;8.10;94.10;;;;;;4840646;29;88202;-70
2023/04/20 03:42:27;;;;;;;3.83;1.17;;;8.10;94.00;;;;;;4860251;28;88455;-69
2023/04/20 03:44:52;;;;;;;5.05;1.40;;;8.00;93.90;;;;;;4860544;28;88632;-69
2023/04/20 03:47:18;;;;;;;3.78;1.40;;;8.00;93.80;;;;;;4862776;28;88314;-69
2023/04/20 03:49:44;;;;;;;6.68;2.03;;;8.00;93.80;;;;;;4861669;28;89518;-69
2023/04/20 03:52:09;;;;;;;5.05;1.90;;;8.10;94.20;;;;;;4862385;28;88089;-69
2023/04/20 03:54:35;;;;;;;4.35;1.67;;;8.00;94.70;;;;;;4863411;28;87832;-69
2023/04/20 03:57:01;;;;;;;4.25;1.75;;;8.10;94.70;;;;;;4862776;28;87638;-69
2023/04/20 03:59:27;;;;;;;3.38;1.33;;;8.10;94.20;;;;;;4866417;28;86788;-69
2023/04/20 04:01:53;;;;;;;4.40;1.55;;;8.10;93.90;;;;;;4855652;28;88816;-69
2023/04/20 04:04:19;;;;;;;4.97;1.30;;;8.10;93.30;;;;;;4862454;28;87771;-69
2023/04/20 04:06:44;;;;;;;4.18;1.55;;;8.10;93.20;;;;;;4858581;28;87920;-69
2023/04/20 04:09:10;;;;;;;3.20;1.23;;;8.10;93.30;;;;;;4859549;28;88708;-69
2023/04/20 04:11:36;;;;;;;3.78;1.10;;;8.00;93.30;;;;;;4860120;28;87599;-69
2023/04/20 04:14:03;;;;;;;3.03;0.73;;;8.00;92.70;;;;;;4861027;28;89105;-69
2023/04/20 04:16:30;;;;;;;3.22;0.70;;;7.90;92.10;;;;;;4862409;28;87456;-68
2023/04/20 04:18:56;;;;;;;1.38;0.40;;;7.80;92.20;;;;;;4856342;28;89002;-70
2023/04/20 04:21:21;;;;;;;1.60;0.55;;;7.80;91.50;;;;;;4860765;28;90435;-70
2023/04/20 04:23:48;;;;;;;3.70;0.73;;;7.80;92.20;;;;;;4862113;28;87269;-69
2023/04/20 04:26:14;;;;;;;5.35;0.95;;;7.80;92.00;;;;;;4854929;28;88233;-68
2023/04/20 04:28:39;;;;;;;2.15;0.60;;;7.70;91.50;;;;;;4855681;28;87479;-70
2023/04/20 04:31:08;;;;;;;3.72;0.90;;;7.60;91.30;;;;;;4872491;28;89762;-71
2023/04/20 04:33:34;;;;;;;2.22;0.80;;;7.60;92.40;;;;;;4858203;28;89478;-71
2023/04/20 04:36:00;;;;;;;1.90;0.82;;;7.60;92.70;;;;;;4864363;28;87386;-72
2023/04/20 04:38:26;;;;;;;1.95;0.63;;;7.60;93.40;;;;;;4860814;28;88660;-70
2023/04/20 04:40:52;;;;;;;2.65;0.50;;;7.70;93.50;;;;;;4860536;28;88551;-70
2023/04/20 04:43:19;;;;;;;1.52;0.30;;;7.80;91.60;;;;;;4862149;28;88449;-72
2023/04/20 04:45:45;;;;;;;2.88;0.30;;;7.70;90.60;;;;;;4860268;28;87660;-70
2023/04/20 04:48:11;;;;;;;1.65;0.20;;;7.70;90.40;;;;;;4865130;28;86853;-71
2023/04/20 04:50:39;;;;;;;1.67;0.43;;;7.70;90.80;;;;;;4854203;28;87704;-77
2023/04/20 04:53:06;;;;;;;1.85;0.40;;;7.70;90.90;;;;;;4860135;28;88354;-71
2023/04/20 04:55:32;;;;;;;3.03;0.50;;;7.80;91.20;;;;;;4861772;28;88559;-71
2023/04/20 04:57:57;;;;;;;2.45;0.60;;;7.90;92.00;;;;;;4853733;28;88279;-71
2023/04/20 05:00:24;;;;;;;2.63;0.50;;;7.90;92.20;;;;;;4858241;28;87822;-71
2023/04/20 05:02:51;;;;;;;2.03;0.50;;;7.90;91.80;;;;;;4852116;28;88703;-71
2023/04/20 05:05:18;;;;;;;3.38;0.57;;;7.80;91.10;;;;;;4854748;28;88031;-71
2023/04/20 05:07:44;;;;;;;1.55;0.40;;;7.80;90.80;;;;;;4854446;28;88842;-71
2023/04/20 05:10:10;;;;;;;1.33;0.43;;;7.60;91.30;;;;;;4849092;28;88431;-71
2023/04/20 05:12:36;;;;;;;1.85;0.50;;;7.60;90.90;;;;;;4848849;28;90512;-71
2023/04/20 05:15:02;;;;;;;1.67;0.40;;;7.60;91.30;;;;;;4847388;29;89767;-71
2023/04/20 05:17:27;;;;;;;1.77;0.50;;;7.70;92.10;;;;;;4856754;28;87578;-70
2023/04/20 05:19:53;;;;;;;3.83;0.77;;;7.80;92.40;;;;;;4848068;28;90235;-71
2023/04/20 05:22:19;;;;;;;3.03;0.35;;;7.80;92.00;;;;;;4854923;28;89276;-70
2023/04/20 05:24:45;;;;;;;3.53;0.60;;;7.80;91.30;;;;;;4869291;28;87665;-72
2023/04/20 05:27:11;;;;;;;3.22;0.57;;;7.80;91.60;;;;;;4856166;28;88540;-71
2023/04/20 05:29:37;;;;;;;2.67;0.73;;;7.90;91.90;;;;;;4848330;28;87686;-71
2023/04/20 05:32:03;;;;;;;4.15;0.60;;;7.90;91.30;;;;;;4853090;28;89083;-70
2023/04/20 05:34:30;;;;;;;2.80;0.70;;;7.80;91.60;;;;;;4852003;29;88312;-71
2023/04/20 05:36:58;;;;;;;3.88;0.68;;;7.60;91.00;;;;;;4862793;29;87001;-71
2023/04/20 05:39:23;;;;;;;3.47;0.65;;;7.60;91.50;;;;;;4861776;29;88803;-71
2023/04/20 05:41:49;;;;;;;1.90;0.70;;;7.50;92.20;;;;;;4860644;28;88396;-71
2023/04/20 05:44:15;;;;;;;3.95;0.65;;;7.50;92.30;;;;;;4861911;28;88081;-71
2023/04/20 05:46:40;;;;;;;2.95;0.50;;;7.50;92.00;;;;;;4862670;29;87390;-71
2023/04/20 05:49:06;;;;;;;1.92;0.63;;;7.40;91.70;;;;;;4861803;29;87724;-71
2023/04/20 05:51:32;;;;;;;2.28;0.60;;;7.30;92.30;;;;;;4861996;29;88056;-71
2023/04/20 05:54:00;;;;;;;3.35;0.80;;;7.30;92.40;;;;;;4859277;28;87608;-71
2023/04/20 05:56:25;;;;;;;4.13;0.98;;;7.30;92.40;;;;;;4863178;28;87346;-71
2023/04/20 05:58:52;;;;;;;4.93;0.73;;;7.30;93.10;;;;;;4860395;29;87519;-71
2023/04/20 06:01:18;;;;;;;2.55;0.68;;;7.40;93.40;;;;;;4862110;29;86867;-71
2023/04/20 06:03:43;;;;;;;5.63;1.30;;;7.50;93.40;;;;;;4860357;29;87410;-71
2023/04/20 06:06:09;;;;;;;2.95;1.17;;;7.50;92.40;;;;;;4862049;29;87648;-71
2023/04/20 06:08:35;;;;;;;2.97;0.80;;;7.50;92.30;;;;;;4862763;29;88892;-71
2023/04/20 06:11:01;;;;;;;4.55;0.70;;;7.40;92.70;;;;;;4857647;29;88796;-71
2023/04/20 06:13:27;;;;;;;3.25;0.65;;;7.40;93.40;;;;;;4861462;29;87369;-71
2023/04/20 06:15:53;;;;;;;3.35;0.95;;;7.50;93.60;;;;;;4863070;29;87654;-70
2023/04/20 06:18:19;;;;;;;2.50;0.65;;;7.50;93.50;;;;;;4862663;29;87456;-70
2023/04/20 06:20:45;;;;;;;5.15;0.88;;;7.50;92.80;;;;;;4862647;29;87425;-70
2023/04/20 06:23:11;;;;;;;2.10;0.55;;;7.50;93.00;;;;;;4862205;29;87544;-71
2023/04/20 06:25:37;;;;;;;3.63;0.70;;;7.30;93.50;;;;;;4863271;29;86599;-71
2023/04/20 06:28:04;;;;;;;8.57;1.95;;;7.20;93.40;;;;;;4861074;29;88091;-71
2023/04/20 06:30:31;;;;;;;5.15;2.00;;;7.20;93.40;;;;;;4862498;29;88286;-70
2023/04/20 06:32:57;;;;;;;3.53;0.73;;;7.10;93.40;;;;;;4862393;29;88310;-70
2023/04/20 06:35:23;;;;;;;3.75;1.00;;;7.10;92.90;;;;;;4862072;29;87753;-70
2023/04/20 06:37:49;;;;;;;1.48;0.40;;;7.10;93.30;;;;;;4861987;29;87751;-71
2023/04/20 06:40:15;;;;;;;3.70;0.35;;;7.10;93.30;;;;;;4862182;29;87393;-71
2023/04/20 06:42:40;;;;;;;4.40;0.40;;;7.00;93.00;;;;;;4861751;28;87269;-70
2023/04/20 06:45:07;;;;;;;2.33;0.40;;;7.00;92.50;;;;;;4862280;29;87161;-70
2023/04/20 06:47:33;;;;;;;2.38;0.38;;;6.90;92.50;;;;;;4845157;29;89307;-71
2023/04/20 06:49:59;;;;;;;3.08;0.30;;;6.80;93.10;;;;;;4862386;29;87169;-70
2023/04/20 06:52:26;;;;;;;3.13;0.50;;;6.90;93.30;;;;;;4861921;28;87353;-71
2023/04/20 06:54:52;;;;;;;2.97;0.60;;;7.00;93.40;;;;;;4862783;29;87411;-70
2023/04/20 06:57:17;;;;;;;3.15;0.50;;;7.00;93.40;;;;;;4861483;29;89026;-71
2023/04/20 06:59:43;;;;;;;1.80;0.25;;;7.10;93.10;;;;;;4862116;29;89678;-71
2023/04/20 07:02:09;;;;;;;3.90;0.50;;;7.10;92.70;;;;;;4860909;28;87561;-71
2023/04/20 07:04:34;;;;;;;3.20;0.43;;;7.10;93.20;;;;;;4862466;29;87466;-70
2023/04/20 07:07:00;;;;;;;3.00;0.40;;;7.10;93.40;;;;;;4861810;29;87494;-70
2023/04/20 07:09:26;;;;;;;1.25;0.20;;;7.10;93.00;;;;;;4862408;29;87570;-70
2023/04/20 07:11:52;;;;;;;0.90;0.20;;;7.00;92.80;;;;;;4847941;29;87749;-70
2023/04/20 07:14:17;;;;;;;1.10;0.20;;;6.80;92.40;;;;;;4862180;29;86642;-71
2023/04/20 07:16:43;;;;;;;1.92;0.28;;;6.90;92.80;;;;;;4859742;29;88878;-71
2023/04/20 07:19:09;;;;;;;2.42;0.30;;;6.90;92.70;;;;;;4860526;29;88075;-70
2023/04/20 07:21:35;;;;;;;2.92;0.30;;;6.90;91.50;;;;;;4861673;29;88327;-71
2023/04/20 07:24:00;;;;;;;1.10;0.30;;;6.90;91.90;;;;;;4862132;29;87109;-71
2023/04/20 07:26:26;;;;;;;1.15;0.30;;;6.90;91.90;;;;;;4860861;29;88184;-70
2023/04/20 07:28:52;;;;;;;3.70;0.30;;;7.10;92.60;;;;;;4844073;29;88050;-70
2023/04/20 07:31:18;;;;;;;1.38;0.30;;;7.20;92.10;;;;;;4844638;29;87872;-70
2023/04/20 07:33:43;;;;;;;1.65;0.30;;;7.50;91.40;;;;;;4862050;29;87418;-71
2023/04/20 07:36:09;;;;;;;1.63;0.40;;;7.80;91.60;;;;;;4860555;29;89220;-71
2023/04/20 07:38:35;;;;;;;3.50;0.30;;;8.10;91.10;;;;;;4862555;29;87863;-71
2023/04/20 07:41:02;;;;;;;4.80;0.50;;;8.40;90.00;;;;;;4861699;28;87971;-71
2023/04/20 07:43:27;;;;;;;2.50;0.45;;;8.50;88.90;;;;;;4861836;29;87618;-71
2023/04/20 07:45:53;;;;;;;3.33;0.70;;;8.70;88.60;;;;;;4860134;28;89795;-71
2023/04/20 07:48:19;;;;;;;2.63;0.50;;;9.00;88.80;;;;;;4861392;29;88824;-71
2023/04/20 07:50:45;;;;;;;1.90;0.50;;;9.10;88.30;;;;;;4861712;29;87595;-71
2023/04/20 07:53:11;;;;;;;2.20;0.40;;;9.40;85.40;;;;;;4861899;29;87733;-71
2023/04/20 07:55:37;;;;;;;3.35;0.50;;;9.50;83.80;;;;;;4861444;29;87455;-71
2023/04/20 07:58:03;;;;;;;2.47;0.50;;;9.70;85.00;;;;;;4859830;29;87882;-71
2023/04/20 08:00:28;;;;;;;2.17;0.40;;;10.00;85.00;;;;;;4861651;29;87189;-71
2023/04/20 08:02:54;;;;;;;2.35;0.47;;;10.20;82.50;;;;;;4861855;29;89802;-71
2023/04/20 08:05:21;;;;;;;2.30;0.50;;;10.50;80.70;;;;;;4860805;29;88826;-71
2023/04/20 08:07:46;;;;;;;4.05;1.23;;;10.70;79.10;;;;;;4860471;28;88000;-71
2023/04/20 08:10:12;;;;;;;4.57;1.17;;;10.80;77.60;;;;;;4855466;29;88554;-71
2023/04/20 08:12:38;;;;;;;2.35;0.65;;;10.90;76.30;;;;;;4854674;29;87480;-71
2023/04/20 08:15:05;;;;;;;2.67;0.70;;;10.90;77.10;;;;;;4860582;29;87958;-70
2023/04/20 08:17:32;;;;;;;2.45;0.45;;;11.30;76.40;;;;;;4860650;29;88661;-69
2023/04/20 08:19:57;;;;;;;2.47;0.60;;;11.50;74.80;;;;;;4861147;29;87110;-70
2023/04/20 08:22:26;;;;;;;1.67;0.63;;;11.60;73.60;;;;;;4861413;29;87480;-70
2023/04/20 08:24:52;;;;;;;2.42;0.50;;;11.90;75.20;;;;;;4863170;29;87621;-70
2023/04/20 08:27:17;;;;;;;2.25;0.70;;;12.20;73.50;;;;;;4863781;28;88703;-70
2023/04/20 08:29:43;;;;;;;2.13;0.50;;;12.30;73.50;;;;;;4863786;29;87176;-70
2023/04/20 08:32:11;;;;;;;2.70;0.70;;;12.10;71.80;;;;;;4864563;29;87260;-70
2023/04/20 08:34:37;;;;;;;2.58;0.60;;;12.40;74.20;;;;;;4862994;29;89039;-70
2023/04/20 08:37:03;;;;;;;3.03;0.60;;;12.40;70.70;;;;;;4862802;29;88975;-70
2023/04/20 08:39:29;;;;;;;1.65;0.50;;;12.30;69.00;;;;;;4864635;29;87484;-70
2023/04/20 08:41:56;;;;;;;2.08;0.47;;;12.20;70.30;;;;;;4864346;29;87100;-70
2023/04/20 08:44:22;;;;;;;2.10;0.50;;;12.40;69.20;;;;;;4863904;29;88391;-70
2023/04/20 08:46:49;;;;;;;1.73;0.40;;;13.10;69.70;;;;;;4863663;29;88388;-70
2023/04/20 08:49:15;;;;;;;1.30;0.40;;;13.60;68.80;;;;;;4862895;29;87375;-70
2023/04/20 08:51:42;;;;;;;0.70;0.30;;;13.80;68.60;;;;;;4865123;29;87274;-70
2023/04/20 08:54:10;;;;;;;2.05;0.20;;;14.20;63.00;;;;;;4863856;29;88167;-70
2023/04/20 08:56:36;;;;;;;1.45;0.30;;;14.10;61.80;;;;;;4863782;29;87829;-70
2023/04/20 08:59:04;;;;;;;1.95;0.30;;;13.70;63.00;;;;;;4863561;29;88048;-70
2023/04/20 09:01:30;;;;;;;1.20;0.30;;;13.60;65.90;;;;;;4862233;29;87524;-70
2023/04/20 09:03:56;;;;;;;2.88;0.20;;;13.70;66.70;;;;;;4862983;29;87673;-70
2023/04/20 09:06:21;;;;;;;1.13;0.30;;;13.80;65.90;;;;;;4864194;29;87516;-70
2023/04/20 09:08:47;;;;;;;1.38;0.30;;;13.60;67.10;;;;;;4861723;29;87458;-70
2023/04/20 09:11:33;;;;;;;0.90;0.20;;;13.50;66.70;;;;;;4858942;28;87570;-70
2023/04/20 09:14:09;;;;;;;0.70;0.20;;;13.40;66.50;;;;;;4862449;29;90250;-70
2023/04/20 09:16:35;;;;;;;0.77;0.20;;;13.20;65.60;;;;;;4863083;29;87954;-70
2023/04/20 09:19:02;;;;;;;0.88;0.20;;;13.10;68.00;;;;;;4863299;28;87111;-70
2023/04/20 09:21:27;;;;;;;0.68;0.20;;;13.00;66.90;;;;;;4862102;29;87630;-70
2023/04/20 09:24:01;;;;;;;1.33;0.20;;;12.80;66.40;;;;;;4862150;29;88690;-70
2023/04/20 09:26:30;;;;;;;2.35;0.20;;;12.70;67.00;;;;;;4863024;28;88894;-70
2023/04/20 09:28:56;;;;;;;0.70;0.20;;;12.50;66.30;;;;;;4863430;29;87708;-70
2023/04/20 09:31:22;;;;;;;1.20;0.20;;;12.30;67.00;;;;;;4860219;29;87702;-70
2023/04/20 09:34:02;;;;;;;0.90;0.20;;;12.40;68.60;;;;;;4859585;28;88216;-70
2023/04/20 09:36:56;;;;;;;0.93;0.20;;;12.30;67.10;;;;;;4862301;28;87795;-70
2023/04/20 09:39:23;;;;;;;2.38;0.20;;;12.20;67.70;;;;;;4863194;29;87263;-70
2023/04/20 09:41:51;;;;;;;2.75;0.38;;;11.90;68.30;;;;;;4862180;29;87984;-70
2023/04/20 09:44:17;;;;;;;2.92;0.32;;;11.50;69.80;;;;;;4862728;29;88191;-69
2023/04/20 09:46:44;;;;;;;1.02;0.20;;;11.50;71.30;;;;;;4862728;29;87391;-69
2023/04/20 09:49:13;;;;;;;1.33;0.40;;;11.50;72.50;;;;;;4862623;29;88428;-71
2023/04/20 09:51:43;;;;;;;1.80;0.40;;;11.60;74.10;;;;;;4861637;28;87600;-71
2023/04/20 09:54:09;;;;;;;1.55;0.32;;;11.50;74.60;;;;;;4863164;29;88705;-71
2023/04/20 09:56:35;;;;;;;2.10;0.40;;;11.30;74.40;;;;;;4862943;28;87568;-71
2023/04/20 09:59:02;;;;;;;1.48;0.30;;;11.10;74.70;;;;;;4861121;29;87414;-71
2023/04/20 10:01:30;;;;;;;2.45;0.40;;;11.00;76.40;;;;;;4861642;29;87589;-71
2023/04/20 10:03:58;;;;;;;2.70;0.40;;;11.00;76.10;;;;;;4862924;29;87625;-69
2023/04/20 10:06:29;;;;;;;1.40;0.40;;;11.00;76.30;;;;;;4862421;29;87752;-71
2023/04/20 10:08:56;;;;;;;2.17;0.40;;;11.00;75.60;;;;;;4860040;29;87495;-69
2023/04/20 10:11:27;;;;;;;1.13;0.35;;;10.90;76.80;;;;;;4865540;28;87667;-71
2023/04/20 10:13:53;;;;;;;1.30;0.35;;;11.00;76.40;;;;;;4861223;29;89084;-71
2023/04/20 10:16:20;;;;;;;0.98;0.20;;;10.90;78.20;;;;;;4862255;29;88710;-69
2023/04/20 10:19:01;;;;;;;2.45;0.40;;;11.00;76.80;;;;;;4861567;29;87031;-71
2023/04/20 10:21:33;;;;;;;1.20;0.20;;;11.20;76.90;;;;;;4859739;28;87576;-69
2023/04/20 10:24:00;;;;;;;1.13;0.30;;;11.30;75.30;;;;;;4857834;28;87749;-71
2023/04/20 10:26:40;;;;;;;1.60;0.40;;;11.60;75.90;;;;;;4862217;28;88371;-71
2023/04/20 10:29:07;;;;;;;2.45;0.30;;;11.70;75.30;;;;;;4857175;28;87544;-71
2023/04/20 10:31:41;;;;;;;1.58;0.40;;;11.80;72.20;;;;;;4858575;28;86678;-69
2023/04/20 10:34:08;;;;;;;1.20;0.20;;;11.70;71.00;;;;;;4840546;28;91813;-69
2023/04/20 10:36:36;;;;;;;1.05;0.30;;;11.60;71.60;;;;;;4857860;28;88379;-71
2023/04/20 10:39:19;;;;;;;2.75;0.25;;;11.50;72.60;;;;;;4857260;28;89596;-71
2023/04/20 10:41:57;;;;;;;1.38;0.30;;;11.70;72.30;;;;;;4858653;28;87700;-72
2023/04/20 10:44:24;;;;;;;1.67;0.25;;;11.80;71.80;;;;;;4856658;28;88836;-69
2023/04/20 10:46:50;;;;;;;0.93;0.30;;;11.90;70.90;;;;;;4857449;28;87705;-71
2023/04/20 10:49:17;;;;;;;0.90;0.30;;;12.20;72.60;;;;;;4856898;28;89005;-70
2023/04/20 10:51:49;;;;;;;1.23;0.20;;;12.60;71.40;;;;;;4857728;28;87771;-71
2023/04/20 10:54:15;;;;;;;2.38;0.22;;;12.60;69.40;;;;;;4860123;28;88062;-71
2023/04/20 10:56:52;;;;;;;1.27;0.30;;;12.80;68.50;;;;;;4857347;28;87855;-69
2023/04/20 10:59:21;;;;;;;1.15;0.50;;;12.70;67.90;;;;;;4858051;28;88626;-71
2023/04/20 11:01:47;;;;;;;0.93;0.30;;;12.50;68.90;;;;;;4857516;28;87635;-71
2023/04/20 11:04:14;;;;;;;1.10;0.25;;;12.50;70.10;;;;;;4862301;28;88573;-72
2023/04/20 11:06:41;;;;;;;1.35;0.40;;;12.50;68.40;;;;;;4860176;29;88652;-70
2023/04/20 11:09:25;;;;;;;1.10;0.25;;;12.50;69.20;;;;;;4855430;28;87689;-71
2023/04/20 11:12:01;;;;;;;1.20;0.30;;;12.60;68.90;;;;;;4859209;28;88385;-71
2023/04/20 11:14:27;;;;;;;1.15;0.40;;;12.60;71.30;;;;;;4856620;28;87584;-71
2023/04/20 11:16:53;;;;;;;0.93;0.35;;;12.70;71.40;;;;;;4858859;28;88006;-71
2023/04/20 11:19:26;;;;;;;1.38;0.30;;;12.90;67.80;;;;;;4856219;28;89092;-69
2023/04/20 11:21:52;;;;;;;2.67;0.38;;;12.90;69.40;;;;;;4859311;28;86417;-71
2023/04/20 11:24:25;;;;;;;1.83;0.30;;;13.00;67.70;;;;;;4858069;28;88678;-71
2023/04/20 11:26:53;;;;;;;2.58;0.45;;;12.90;68.10;;;;;;4858579;28;87763;-71
2023/04/20 11:29:34;;;;;;;1.10;0.30;;;13.00;69.00;;;;;;4859236;28;89200;-72
2023/04/20 11:32:03;;;;;;;1.15;0.45;;;13.10;67.00;;;;;;4860458;28;87287;-72
2023/04/20 11:34:29;;;;;;;1.80;0.70;;;13.10;68.10;;;;;;4853774;28;89297;-70
2023/04/20 11:36:55;;;;;;;2.08;0.50;;;13.20;67.50;;;;;;4856672;28;89066;-72
2023/04/20 11:39:31;;;;;;;1.73;0.50;;;13.40;66.90;;;;;;4868632;28;87222;-72
2023/04/20 11:41:57;;;;;;;1.85;0.68;;;13.40;67.70;;;;;;4862280;29;87047;-71
2023/04/20 11:44:26;;;;;;;1.40;0.45;;;13.40;65.80;;;;;;4860999;29;87727;-71
2023/04/20 11:46:53;;;;;;;1.75;0.40;;;13.20;67.70;;;;;;4861402;28;88098;-71
2023/04/20 11:49:23;;;;;;;1.67;0.50;;;13.20;71.30;;;;;;4859098;29;87309;-72
2023/04/20 11:51:49;;;;;;;;;;;13.10;69.20;;;;;;4855667;29;87444;-71
2023/04/20 11:54:17;;;;;;;1.58;0.40;;;12.90;67.60;;;;;;4862536;29;88717;-72
2023/04/20 11:56:43;;;;;;;1.83;0.50;;;12.60;69.00;;;;;;4860985;29;88280;-71
2023/04/20 11:59:10;;;;;;;3.03;0.35;;;12.30;69.20;;;;;;4860529;29;87773;-71
2023/04/20 12:01:36;;;;;;;4.63;0.57;;;12.10;70.20;;;;;;4864393;29;87735;-72
2023/04/20 12:04:03;;;;;;;1.23;0.50;;;12.10;70.80;;;;;;4864784;29;88121;-71
2023/04/20 12:06:30;;;;;;;1.95;0.38;;;11.90;70.90;;;;;;4864163;29;88052;-72
2023/04/20 12:08:56;;;;;;;1.40;0.50;;;11.90;73.00;;;;;;4863849;28;87467;-71
2023/04/20 12:11:22;;;;;;;1.55;0.50;;;11.90;73.50;;;;;;4863124;28;86915;-71
2023/04/20 12:13:48;;;;;;;1.60;0.50;;;11.80;72.60;;;;;;4864554;28;88060;-71
2023/04/20 12:16:13;;;;;;;1.33;0.30;;;11.70;75.20;;;;;;4864241;29;87384;-72
2023/04/20 12:18:40;;;;;;;1.20;0.40;;;11.60;74.80;;;;;;4862277;29;88602;-71
2023/04/20 12:21:06;;;;;;;2.25;0.57;;;11.50;75.70;;;;;;4864401;28;89235;-71
2023/04/20 12:23:32;;;;;;;3.38;0.60;;;11.50;75.30;;;;;;4863904;28;88204;-71
2023/04/20 12:25:58;;;;;;;3.67;0.50;;;11.40;76.30;;;;;;4863837;29;88116;-71
2023/04/20 12:28:24;;;;;;;3.38;0.60;;;11.40;76.40;;;;;;4861429;28;87811;-71
2023/04/20 12:30:50;;;;;;;5.80;0.70;;;11.50;77.20;;;;;;4863893;29;87566;-71
2023/04/20 12:33:15;;;;;;;1.73;0.63;;;11.50;78.10;;;;;;4846912;29;89287;-71
2023/04/20 12:35:42;;;;;;;5.13;0.68;;;11.50;78.90;;;;;;4863829;29;87143;-72
2023/04/20 12:38:08;;;;;;;2.55;0.77;;;11.50;79.30;;;;;;4861819;28;87969;-71
2023/04/20 12:40:34;;;;;;;1.67;0.60;;;11.40;79.80;;;;;;4863538;29;87561;-71
2023/04/20 12:43:00;;;;;;;2.03;0.60;;;11.40;78.90;;;;;;4862689;29;89135;-71
2023/04/20 12:45:26;;;;;;;2.20;1.02;;;11.30;80.30;;;;;;4863184;28;89513;-72
2023/04/20 12:47:51;;;;;;;3.50;0.80;;;11.30;81.50;;;;;;4861811;28;89007;-71
2023/04/20 12:50:17;;;;;;;2.20;0.93;;;11.20;80.10;;;;;;4864257;28;87346;-71
2023/04/20 12:52:43;;;;;;;3.63;0.90;;;11.00;80.60;;;;;;4863651;29;88374;-71
2023/04/20 12:55:10;;;;;;;2.42;0.90;;;10.80;81.50;;;;;;4862594;29;88152;-71
2023/04/20 12:57:35;;;;;;;2.95;1.25;;;10.80;82.80;;;;;;4863833;29;87991;-71
2023/04/20 13:00:01;;;;;;;3.20;0.93;;;10.80;82.40;;;;;;4862964;28;86763;-71
2023/04/20 13:02:27;;;;;;;3.83;1.30;;;10.60;82.80;;;;;;4863122;29;88631;-72
2023/04/20 13:04:53;;;;;;;3.00;1.15;;;10.70;83.30;;;;;;4862097;28;87630;-71
2023/04/20 13:07:19;;;;;;;5.43;1.00;;;10.70;83.70;;;;;;4866785;28;88392;-71
2023/04/20 13:09:44;;;;;;;3.10;1.00;;;10.70;83.40;;;;;;4865676;28;87610;-71
2023/04/20 13:12:11;;;;;;;3.28;1.02;;;10.80;83.40;;;;;;4862741;28;88071;-71
2023/04/20 13:14:37;;;;;;;3.40;0.95;;;10.80;83.40;;;;;;4862911;28;88546;-71
2023/04/20 13:17:05;;;;;;;3.90;1.10;;;10.80;82.10;;;;;;4862511;28;87801;-71
2023/04/20 13:19:30;;;;;;;2.70;0.93;;;10.80;82.70;;;;;;4862785;28;87657;-72
2023/04/20 13:21:56;;;;;;;1.58;0.50;;;10.70;81.90;;;;;;4862124;28;88233;-71
2023/04/20 13:24:22;;;;;;;2.47;0.70;;;10.70;80.70;;;;;;4863003;29;87989;-71
2023/04/20 13:26:51;;;;;;;1.92;0.50;;;10.70;80.00;;;;;;4863445;29;87413;-71
2023/04/20 13:29:17;;;;;;;1.90;0.50;;;10.70;80.00;;;;;;4863390;29;87432;-71
2023/04/20 13:31:43;;;;;;;2.10;0.50;;;10.80;80.50;;;;;;4860721;28;89846;-72
2023/04/20 13:34:08;;;;;;;1.58;0.40;;;10.70;79.40;;;;;;4857286;28;88427;-71
2023/04/20 13:36:34;;;;;;;1.45;0.52;;;10.70;80.90;;;;;;4858291;28;87794;-72
2023/04/20 13:39:00;;;;;;;2.10;0.52;;;10.70;80.40;;;;;;4861901;29;87217;-71
2023/04/20 13:41:26;;;;;;;1.77;0.55;;;10.60;81.00;;;;;;4861318;28;88241;-71
2023/04/20 13:43:53;;;;;;;3.08;0.68;;;10.60;82.90;;;;;;4862821;28;88288;-71
2023/04/20 13:46:19;;;;;;;1.90;0.60;;;10.50;82.20;;;;;;4861352;28;87637;-72
2023/04/20 13:48:45;;;;;;;2.05;0.85;;;10.40;82.90;;;;;;4864969;28;87042;-71
2023/04/20 13:51:10;;;;;;;1.90;0.52;;;10.40;83.80;;;;;;4862437;29;88405;-71
2023/04/20 13:53:36;;;;;;;3.45;0.93;;;10.30;84.30;;;;;;4862643;29;88177;-71
2023/04/20 13:56:02;;;;;;;2.65;0.98;;;10.30;83.50;;;;;;4860855;28;88320;-71
2023/04/20 13:58:28;;;;;;;3.72;1.58;;;10.20;84.70;;;;;;4856789;28;87457;-71
2023/04/20 14:00:54;;;;;;;2.67;1.10;;;10.10;85.40;;;;;;4860929;28;88627;-71
2023/04/20 14:03:20;;;;;;;2.33;0.90;;;10.00;86.80;;;;;;4861354;29;87366;-71
2023/04/20 14:05:46;;;;;;;3.58;1.23;;;10.10;87.30;;;;;;4846071;29;87390;-71
2023/04/20 14:08:12;;;;;;;3.65;1.80;;;10.10;88.00;;;;;;4858849;28;88315;-71
2023/04/20 14:10:39;;;;;;;2.97;1.63;;;10.10;87.20;;;;;;4863392;28;88699;-71
2023/04/20 14:13:05;;;;;;;3.92;1.35;;;10.10;88.10;;;;;;4858870;28;87872;-71
2023/04/20 14:15:31;;;;;;;3.83;1.27;;;10.10;87.10;;;;;;4843409;28;87561;-71
2023/04/20 14:17:59;;;;;;;3.30;1.42;;;10.30;87.10;;;;;;4869103;28;89048;-71
2023/04/20 14:20:25;;;;;;;3.88;1.67;;;10.30;86.70;;;;;;4862613;28;89635;-71
2023/04/20 14:22:51;;;;;;;7.45;3.65;;;10.50;86.70;;;;;;4866678;28;88905;-71
2023/04/20 14:25:17;;;;;;;3.85;1.80;;;10.60;86.80;;;;;;4861783;28;87484;-71
2023/04/20 14:27:43;;;;;;;3.65;1.67;;;10.60;87.10;;;;;;4861147;28;87409;-71
2023/04/20 14:30:09;;;;;;;3.53;1.70;;;10.60;86.80;;;;;;4861556;28;87835;-71
2023/04/20 14:32:35;;;;;;;4.55;2.30;;;10.50;87.10;;;;;;4862491;29;87427;-71
2023/04/20 14:35:01;;;;;;;4.82;1.92;;;10.50;87.90;;;;;;4862629;29;87417;-71
2023/04/20 14:37:27;;;;;;;5.43;2.28;;;10.40;87.90;;;;;;4862952;29;86693;-71
2023/04/20 14:39:52;;;;;;;4.53;1.70;;;10.40;88.20;;;;;;4861500;29;89169;-71
2023/04/20 14:42:18;;;;;;;3.97;1.90;;;10.40;88.70;;;;;;4863798;28;87410;-71
2023/04/20 14:44:44;;;;;;;5.90;2.63;;;10.40;89.50;;;;;;4860651;29;88364;-72
2023/04/20 14:47:09;;;;;;;4.55;1.95;;;10.40;89.50;;;;;;4855220;28;88589;-72
2023/04/20 14:49:35;;;;;;;4.93;2.33;;;10.50;89.00;;;;;;4856373;28;89576;-72
2023/04/20 14:52:01;;;;;;;5.82;2.60;;;10.40;89.50;;;;;;4859445;28;87855;-71
2023/04/20 14:54:28;;;;;;;5.90;2.13;;;10.40;89.50;;;;;;4856686;28;88801;-71
2023/04/20 14:56:54;;;;;;;4.97;2.25;;;10.30;88.80;;;;;;4862219;28;87744;-71
2023/04/20 14:59:19;;;;;;;4.45;2.10;;;10.30;89.80;;;;;;4859048;28;88132;-71
2023/04/20 15:01:45;;;;;;;5.50;1.92;;;10.30;89.70;;;;;;4863590;28;87758;-71
2023/04/20 15:04:11;;;;;;;3.78;1.75;;;10.30;90.80;;;;;;4868269;28;88635;-71
2023/04/20 15:06:37;;;;;;;4.10;2.00;;;10.30;90.30;;;;;;4862622;29;87450;-71
2023/04/20 15:09:03;;;;;;;4.88;1.67;;;10.30;90.50;;;;;;4861358;29;88697;-71
2023/04/20 15:11:29;;;;;;;3.63;1.48;;;10.30;89.90;;;;;;4872437;28;88291;-71
2023/04/20 15:13:54;;;;;;;5.38;1.90;;;10.30;90.00;;;;;;4861953;29;88174;-71
2023/04/20 15:16:20;;;;;;;5.38;1.92;;;10.20;90.20;;;;;;4861661;29;88074;-71
2023/04/20 15:18:46;;;;;;;4.28;1.80;;;10.20;90.40;;;;;;4861946;29;89049;-71
2023/04/20 15:21:11;;;;;;;3.38;1.40;;;10.10;90.60;;;;;;4861991;29;87854;-71
2023/04/20 15:23:37;;;;;;;2.80;1.30;;;10.10;90.60;;;;;;4862336;29;87355;-71
2023/04/20 15:26:03;;;;;;;4.13;1.42;;;10.20;90.70;;;;;;4861804;29;86859;-71
2023/04/20 15:28:28;;;;;;;3.38;1.20;;;10.10;90.60;;;;;;4861846;29;88838;-71
2023/04/20 15:30:54;;;;;;;2.55;1.33;;;10.20;90.70;;;;;;4861959;29;87821;-71
2023/04/20 15:33:20;;;;;;;4.20;1.67;;;10.10;90.80;;;;;;4861612;29;88442;-71
2023/04/20 15:35:45;;;;;;;2.40;0.90;;;10.10;90.90;;;;;;4862429;28;88696;-71
2023/04/20 15:38:11;;;;;;;3.25;0.80;;;10.10;90.40;;;;;;4865330;29;88237;-71
2023/04/20 15:40:37;;;;;;;2.53;0.60;;;10.10;90.50;;;;;;4865066;29;87402;-71
2023/04/20 15:43:03;;;;;;;3.55;0.93;;;10.00;90.80;;;;;;4860599;28;87684;-71
2023/04/20 15:45:30;;;;;;;2.75;0.75;;;9.90;91.50;;;;;;4863543;28;87943;-71
2023/04/20 15:47:56;;;;;;;3.63;0.70;;;9.80;91.90;;;;;;4864793;29;88639;-71